createdAt,value
2023-02-18T00:01:27.421Z,25.20
2023-02-18T00:03:54.490Z,23.25
2023-02-18T00:06:24.841Z,24.63
2023-02-18T00:08:52.838Z,21.95
2023-02-18T00:11:21.805Z,22.80
2023-02-18T00:13:54.555Z,24.23
2023-02-18T00:16:22.517Z,26.17
2023-02-18T00:18:49.974Z,23.42
2023-02-18T00:21:17.211Z,21.40
2023-02-18T00:23:44.352Z,24.55
2023-02-18T00:26:14.738Z,23.50
2023-02-18T00:28:43.038Z,23.20
2023-02-18T00:31:16.465Z,22.52
2023-02-18T00:33:43.631Z,23.60
2023-02-18T00:36:14.058Z,22.88
2023-02-18T00:38:48.127Z,22.80
2023-02-18T00:41:15.753Z,23.65
2023-02-18T00:43:42.987Z,22.85
2023-02-18T00:46:10.876Z,24.13
2023-02-18T00:48:38.512Z,20.45
2023-02-18T00:51:07.067Z,22.58
2023-02-18T00:53:35.010Z,21.63
2023-02-18T00:56:02.168Z,22.10
2023-02-18T00:58:29.332Z,23.77
2023-02-18T01:00:56.718Z,25.25
2023-02-18T01:03:24.291Z,24.00
2023-02-18T01:05:51.776Z,21.27
2023-02-18T01:08:20.339Z,19.88
2023-02-18T01:10:49.824Z,19.38
2023-02-18T01:13:17.059Z,22.13
2023-02-18T01:15:46.318Z,21.50
2023-02-18T01:18:14.133Z,22.17
2023-02-18T01:20:43.144Z,20.98
2023-02-18T01:23:11.041Z,21.23
2023-02-18T01:25:38.864Z,20.30
2023-02-18T01:28:11.237Z,20.30
2023-02-18T01:30:38.833Z,18.88
2023-02-18T01:33:06.090Z,20.27
2023-02-18T01:35:33.908Z,19.83
2023-02-18T01:38:01.073Z,19.85
2023-02-18T01:40:30.173Z,19.20
2023-02-18T01:42:57.661Z,18.98
2023-02-18T01:46:19.964Z,19.38
2023-02-18T01:49:00.226Z,18.02
2023-02-18T01:51:32.199Z,17.27
2023-02-18T01:54:13.720Z,19.90
2023-02-18T01:57:06.122Z,18.88
2023-02-18T01:59:38.771Z,20.67
2023-02-18T02:02:11.060Z,21.13
2023-02-18T02:04:38.222Z,20.83
2023-02-18T02:07:05.504Z,21.38
2023-02-18T02:09:35.173Z,22.52
2023-02-18T02:12:35.433Z,21.40
2023-02-18T02:15:22.973Z,21.27
2023-02-18T02:18:02.019Z,20.45
2023-02-18T02:21:18.172Z,20.63
2023-02-18T02:24:00.377Z,19.10
2023-02-18T02:26:50.528Z,20.05
2023-02-18T02:29:36.400Z,21.65
2023-02-18T02:32:41.056Z,22.40
2023-02-18T02:37:41.192Z,18.20
2023-02-18T02:40:21.145Z,21.40
2023-02-18T02:42:57.516Z,21.63
2023-02-18T02:45:47.646Z,21.83
2023-02-18T02:48:37.000Z,20.50
2023-02-18T02:51:19.808Z,20.17
2023-02-18T02:53:46.955Z,21.25
2023-02-18T02:56:25.283Z,20.60
2023-02-18T02:59:04.366Z,21.80
2023-02-18T03:02:00.228Z,20.10
2023-02-18T03:04:27.329Z,21.75
2023-02-18T03:07:07.877Z,20.20
2023-02-18T03:10:11.907Z,19.55
2023-02-18T03:13:20.794Z,22.75
2023-02-18T03:16:08.932Z,20.70
2023-02-18T03:18:55.935Z,20.85
2023-02-18T03:21:32.323Z,20.00
2023-02-18T03:24:21.301Z,20.38
2023-02-18T03:26:52.990Z,17.30
2023-02-18T03:29:22.305Z,21.40
2023-02-18T03:31:55.869Z,20.10
2023-02-18T03:34:34.024Z,17.77
2023-02-18T03:37:02.653Z,18.42
2023-02-18T03:39:32.444Z,17.80
2023-02-18T03:42:00.132Z,17.65
2023-02-18T03:44:31.205Z,15.88
2023-02-18T03:46:58.453Z,18.70
2023-02-18T03:49:25.602Z,17.70
2023-02-18T03:51:52.843Z,18.27
2023-02-18T03:54:20.690Z,18.88
2023-02-18T03:56:47.994Z,16.38
2023-02-18T03:59:15.238Z,16.90
2023-02-18T04:01:42.365Z,17.52
2023-02-18T04:04:09.589Z,16.50
2023-02-18T04:06:36.898Z,16.30
2023-02-18T04:09:08.792Z,16.95
2023-02-18T04:11:40.494Z,17.50
2023-02-18T04:14:07.954Z,15.75
2023-02-18T04:16:35.182Z,18.83
2023-02-18T04:19:02.300Z,18.80
2023-02-18T04:21:29.393Z,18.17
2023-02-18T04:23:56.614Z,16.98
2023-02-18T04:26:24.022Z,19.85
2023-02-18T04:28:51.146Z,19.25
2023-02-18T04:31:18.408Z,17.77
2023-02-18T04:33:46.236Z,18.23
2023-02-18T04:36:13.404Z,18.88
2023-02-18T04:38:42.029Z,20.10
2023-02-18T04:41:09.253Z,20.17
2023-02-18T04:43:36.413Z,20.85
2023-02-18T04:46:03.616Z,20.70
2023-02-18T04:48:30.888Z,21.00
2023-02-18T04:50:57.975Z,20.90
2023-02-18T04:53:25.124Z,20.00
2023-02-18T04:55:53.117Z,21.75
2023-02-18T04:58:20.954Z,19.63
2023-02-18T05:00:48.510Z,21.27
2023-02-18T05:03:15.903Z,21.23
2023-02-18T05:05:43.256Z,19.85
2023-02-18T05:08:10.329Z,20.33
2023-02-18T05:10:38.544Z,20.65
2023-02-18T05:13:05.780Z,21.73
2023-02-18T05:15:32.987Z,22.13
2023-02-18T05:18:00.176Z,23.52
2023-02-18T05:20:27.461Z,20.00
2023-02-18T05:22:54.596Z,24.40
2023-02-18T05:25:21.685Z,24.27
2023-02-18T05:27:48.774Z,25.65
2023-02-18T05:30:16.049Z,26.45
2023-02-18T05:32:43.180Z,26.33
2023-02-18T05:35:10.587Z,26.55
2023-02-18T05:37:37.651Z,29.92
2023-02-18T05:40:05.608Z,27.85
2023-02-18T05:42:33.024Z,28.67
2023-02-18T05:45:00.139Z,30.02
2023-02-18T05:47:27.213Z,31.50
2023-02-18T05:49:55.931Z,29.63
2023-02-18T05:52:23.153Z,28.85
2023-02-18T05:54:50.249Z,31.13
2023-02-18T05:57:17.393Z,27.95
2023-02-18T05:59:44.554Z,30.13
2023-02-18T06:02:11.675Z,27.48
2023-02-18T06:04:39.226Z,29.92
2023-02-18T06:07:06.777Z,29.80
2023-02-18T06:09:33.989Z,26.00
2023-02-18T06:12:01.099Z,30.88
2023-02-18T06:14:28.240Z,30.73
2023-02-18T06:16:55.292Z,29.73
2023-02-18T06:19:22.905Z,30.88
2023-02-18T06:21:50.046Z,29.95
2023-02-18T06:24:17.097Z,32.80
2023-02-18T06:26:44.193Z,32.28
2023-02-18T06:29:11.327Z,29.58
2023-02-18T06:31:38.600Z,31.27
2023-02-18T06:34:05.732Z,16.25
2023-02-18T06:36:32.886Z,70.07
2023-02-18T06:39:02.468Z,31.70
2023-02-18T06:41:29.549Z,25.98
2023-02-18T06:43:56.649Z,25.35
2023-02-18T06:46:23.954Z,24.85
2023-02-18T06:48:51.411Z,24.98
2023-02-18T06:51:19.471Z,24.20
2023-02-18T06:53:46.547Z,26.23
2023-02-18T06:56:13.606Z,28.42
2023-02-18T06:58:40.712Z,29.30
2023-02-18T07:01:07.937Z,27.17
2023-02-18T07:03:35.196Z,29.08
2023-02-18T07:06:02.400Z,26.70
2023-02-18T07:08:30.840Z,29.42
2023-02-18T07:10:57.918Z,29.23
2023-02-18T07:13:24.999Z,29.65
2023-02-18T07:15:52.076Z,29.52
2023-02-18T07:18:19.197Z,30.80
2023-02-18T07:20:46.655Z,30.85
2023-02-18T07:23:13.708Z,33.72
2023-02-18T07:25:41.024Z,32.67
2023-02-18T07:28:08.078Z,31.88
2023-02-18T07:30:35.201Z,31.08
2023-02-18T07:33:03.981Z,31.00
2023-02-18T07:35:31.300Z,31.05
2023-02-18T07:37:58.450Z,30.35
2023-02-18T07:40:25.577Z,29.70
2023-02-18T07:42:52.628Z,35.40
2023-02-18T07:45:19.738Z,35.13
2023-02-18T07:47:46.847Z,35.28
2023-02-18T07:50:13.940Z,34.22
2023-02-18T07:52:41.154Z,35.28
2023-02-18T07:55:08.643Z,30.50
2023-02-18T07:57:55.732Z,33.80
2023-02-18T08:00:23.360Z,34.97
2023-02-18T08:02:50.466Z,33.70
2023-02-18T08:05:17.535Z,33.50
2023-02-18T08:07:44.705Z,32.80
2023-02-18T08:10:11.812Z,33.30
2023-02-18T08:12:38.907Z,32.40
2023-02-18T08:15:06.272Z,33.05
2023-02-18T08:17:33.404Z,31.73
2023-02-18T08:20:00.551Z,33.13
2023-02-18T08:22:27.641Z,32.08
2023-02-18T08:24:56.330Z,32.92
2023-02-18T08:27:24.135Z,35.72
2023-02-18T08:29:51.533Z,34.40
2023-02-18T08:32:18.722Z,32.88
2023-02-18T08:34:45.791Z,33.90
2023-02-18T08:37:13.143Z,33.67
2023-02-18T08:39:40.296Z,31.83
2023-02-18T08:42:07.611Z,32.85
2023-02-18T08:44:34.726Z,31.08
2023-02-18T08:47:01.830Z,30.63
2023-02-18T08:49:29.011Z,31.27
2023-02-18T08:51:56.777Z,31.25
2023-02-18T08:54:24.131Z,30.60
2023-02-18T08:56:57.716Z,31.60
2023-02-18T08:59:25.327Z,31.02
2023-02-18T09:01:52.938Z,31.98
2023-02-18T09:04:21.175Z,32.67
2023-02-18T09:06:49.920Z,31.48
2023-02-18T09:09:17.774Z,29.33
2023-02-18T09:11:45.456Z,29.30
2023-02-18T09:14:14.048Z,27.73
2023-02-18T09:16:42.061Z,26.75
2023-02-18T09:19:09.803Z,26.73
2023-02-18T09:21:37.652Z,27.88
2023-02-18T09:24:05.014Z,27.63
2023-02-18T09:26:32.197Z,28.60
2023-02-18T09:28:59.330Z,29.35
2023-02-18T09:31:27.843Z,28.38
2023-02-18T09:34:01.992Z,29.05
2023-02-18T09:36:29.714Z,27.02
2023-02-18T09:38:57.161Z,28.33
2023-02-18T09:41:24.165Z,27.13
2023-02-18T09:43:55.792Z,26.00
2023-02-18T09:46:33.632Z,26.40
2023-02-18T09:49:04.195Z,26.92
2023-02-18T09:51:31.353Z,26.30
2023-02-18T09:53:58.906Z,27.25
2023-02-18T09:56:35.820Z,26.48
2023-02-18T09:59:05.883Z,25.90
2023-02-18T10:01:37.430Z,25.65
2023-02-18T10:04:13.009Z,24.92
2023-02-18T10:06:40.190Z,26.33
2023-02-18T10:09:41.659Z,25.08
2023-02-18T10:12:18.245Z,24.33
2023-02-18T10:14:50.669Z,23.20
2023-02-18T10:17:19.045Z,26.08
2023-02-18T10:19:48.682Z,24.75
2023-02-18T10:22:18.147Z,25.88
2023-02-18T10:25:06.910Z,24.85
2023-02-18T10:27:37.148Z,26.00
2023-02-18T10:30:22.406Z,25.52
2023-02-18T10:32:55.235Z,24.13
2023-02-18T10:35:34.048Z,24.77
2023-02-18T10:38:06.846Z,25.30
2023-02-18T10:40:36.795Z,26.70
2023-02-18T10:43:03.888Z,24.92
2023-02-18T10:45:44.318Z,27.02
2023-02-18T10:48:18.487Z,26.92
2023-02-18T10:50:46.563Z,26.17
2023-02-18T10:53:33.954Z,25.67
2023-02-18T10:56:01.361Z,25.67
2023-02-18T10:58:43.186Z,26.13
2023-02-18T11:01:16.328Z,26.08
2023-02-18T11:03:50.284Z,25.88
2023-02-18T11:06:34.227Z,25.73
2023-02-18T11:11:37.028Z,25.42
2023-02-18T11:14:07.242Z,26.05
2023-02-18T11:16:40.534Z,29.30
2023-02-18T11:19:34.234Z,27.33
2023-02-18T11:22:12.706Z,25.92
2023-02-18T11:24:39.808Z,26.55
2023-02-18T11:27:14.730Z,24.83
2023-02-18T11:29:41.984Z,25.55
2023-02-18T11:32:12.123Z,26.42
2023-02-18T11:34:43.136Z,23.90
2023-02-18T11:37:15.929Z,22.73
2023-02-18T11:39:45.487Z,26.55
2023-02-18T11:42:19.104Z,26.63
2023-02-18T11:47:25.051Z,21.30
2023-02-18T11:50:03.545Z,23.13
2023-02-18T11:52:38.904Z,23.13
2023-02-18T11:55:13.825Z,25.17
2023-02-18T11:57:45.362Z,25.58
2023-02-18T12:00:21.604Z,25.42
2023-02-18T12:02:50.441Z,25.92
2023-02-18T12:05:24.619Z,23.48
2023-02-18T12:08:07.517Z,22.67
2023-02-18T12:10:39.991Z,23.50
2023-02-18T12:13:16.070Z,22.60
2023-02-18T12:16:06.299Z,21.52
2023-02-18T12:18:44.598Z,22.52
2023-02-18T12:21:27.267Z,19.80
2023-02-18T12:24:31.901Z,19.77
2023-02-18T12:27:21.517Z,22.58
2023-02-18T12:30:03.289Z,21.92
2023-02-18T12:33:17.900Z,21.98
2023-02-18T12:35:44.925Z,20.80
2023-02-18T12:38:42.614Z,21.80
2023-02-18T12:41:39.974Z,21.85
2023-02-18T12:44:15.930Z,20.63
2023-02-18T12:46:45.734Z,21.25
2023-02-18T12:49:21.672Z,21.58
2023-02-18T12:52:05.595Z,24.00
2023-02-18T12:54:47.993Z,22.92
2023-02-18T12:57:25.064Z,21.30
2023-02-18T13:00:20.282Z,21.60
2023-02-18T13:03:01.351Z,21.58
2023-02-18T13:05:58.141Z,23.48
2023-02-18T13:08:55.628Z,22.30
2023-02-18T13:11:34.891Z,26.55
2023-02-18T13:14:30.054Z,22.10
2023-02-18T13:17:00.524Z,25.73
2023-02-18T13:19:44.949Z,23.95
2023-02-18T13:22:17.006Z,21.98
2023-02-18T13:24:48.109Z,21.45
2023-02-18T13:27:22.016Z,22.40
2023-02-18T13:30:02.646Z,21.42
2023-02-18T13:32:39.918Z,22.02
2023-02-18T13:35:12.674Z,24.10
2023-02-18T13:37:42.428Z,22.05
2023-02-18T13:40:19.962Z,31.42
2023-02-18T13:42:52.231Z,24.10
2023-02-18T13:45:31.369Z,32.92
2023-02-18T13:48:00.092Z,22.13
2023-02-18T13:50:39.071Z,29.42
2023-02-18T13:53:09.208Z,21.67
2023-02-18T13:55:45.976Z,23.98
2023-02-18T13:58:19.172Z,23.67
2023-02-18T14:00:53.744Z,21.13
2023-02-18T14:03:33.390Z,21.48
2023-02-18T14:06:00.489Z,21.98
2023-02-18T14:08:35.484Z,21.80
2023-02-18T14:11:11.634Z,23.38
2023-02-18T14:13:41.999Z,22.30
2023-02-18T14:16:10.764Z,22.33
2023-02-18T14:18:40.561Z,24.75
2023-02-18T14:21:13.613Z,23.80
2023-02-18T14:24:00.499Z,22.67
2023-02-18T14:26:37.290Z,21.92
2023-02-18T14:29:14.036Z,22.02
2023-02-18T14:31:49.600Z,22.10
2023-02-18T14:34:41.713Z,20.98
2023-02-18T14:37:26.489Z,21.00
2023-02-18T14:40:17.436Z,23.02
2023-02-18T14:43:07.247Z,21.75
2023-02-18T14:45:58.809Z,23.77
2023-02-18T14:48:37.608Z,32.58
2023-02-18T14:51:05.724Z,24.50
2023-02-18T14:53:40.526Z,26.52
2023-02-18T14:56:11.256Z,25.17
2023-02-18T14:58:43.445Z,26.65
2023-02-18T15:01:25.188Z,24.70
2023-02-18T15:03:54.875Z,24.17
2023-02-18T15:06:28.045Z,24.10
2023-02-18T15:08:55.144Z,23.58
2023-02-18T15:11:28.023Z,24.05
2023-02-18T15:13:55.124Z,24.65
2023-02-18T15:16:34.032Z,23.45
2023-02-18T15:19:05.314Z,24.10
2023-02-18T15:21:37.563Z,24.25
2023-02-18T15:24:27.566Z,23.67
2023-02-18T15:26:58.813Z,23.30
2023-02-18T15:29:28.455Z,22.15
2023-02-18T15:31:57.864Z,23.55
2023-02-18T15:34:36.075Z,23.33
2023-02-18T15:37:06.304Z,25.02
2023-02-18T15:39:35.136Z,23.08
2023-02-18T15:42:18.493Z,23.10
2023-02-18T15:44:52.793Z,23.17
2023-02-18T15:47:20.504Z,24.73
2023-02-18T15:49:53.966Z,23.42
2023-02-18T15:54:53.367Z,23.90
2023-02-18T15:57:27.564Z,24.08
2023-02-18T16:00:04.265Z,24.00
2023-02-18T16:02:33.256Z,26.35
2023-02-18T16:05:04.998Z,25.00
2023-02-18T16:07:49.069Z,25.30
2023-02-18T16:13:01.279Z,26.23
2023-02-18T16:15:40.524Z,26.23
2023-02-18T16:18:25.128Z,23.80
2023-02-18T16:21:02.265Z,27.50
2023-02-18T16:23:42.294Z,25.55
2023-02-18T16:26:31.266Z,27.13
2023-02-18T16:29:25.310Z,26.98
2023-02-18T16:31:52.942Z,27.08
2023-02-18T16:34:20.388Z,31.55
2023-02-18T16:37:06.386Z,26.70
2023-02-18T16:39:35.257Z,28.33
2023-02-18T16:42:02.401Z,27.52
2023-02-18T16:44:29.483Z,28.40
2023-02-18T16:46:57.267Z,31.70
2023-02-18T16:49:24.368Z,29.83
2023-02-18T16:51:51.654Z,31.05
2023-02-18T16:54:18.776Z,29.08
2023-02-18T16:56:46.153Z,31.08
2023-02-18T16:59:13.247Z,31.83
2023-02-18T17:01:44.799Z,32.03
2023-02-18T17:04:17.643Z,35.22
2023-02-18T17:06:48.539Z,36.33
2023-02-18T17:09:17.640Z,36.25
2023-02-18T17:11:46.380Z,31.42
2023-02-18T17:14:23.682Z,31.75
2023-02-18T17:16:54.191Z,32.13
2023-02-18T17:19:22.712Z,34.35
2023-02-18T17:21:49.927Z,32.67
2023-02-18T17:24:18.643Z,30.67
2023-02-18T17:26:45.775Z,29.92
2023-02-18T17:29:13.772Z,30.67
2023-02-18T17:31:47.477Z,30.52
2023-02-18T17:34:24.848Z,34.13
2023-02-18T17:36:51.980Z,31.83
2023-02-18T17:39:20.313Z,33.78
2023-02-18T17:41:47.530Z,33.88
2023-02-18T17:44:23.789Z,34.50
2023-02-18T17:46:50.959Z,36.20
2023-02-18T17:49:18.299Z,35.78
2023-02-18T17:51:45.706Z,35.55
2023-02-18T17:54:17.787Z,34.47
2023-02-18T17:56:45.848Z,33.63
2023-02-18T17:59:13.149Z,34.03
2023-02-18T18:01:40.711Z,36.08
2023-02-18T18:04:15.833Z,34.53
2023-02-18T18:06:43.747Z,35.35
2023-02-18T18:09:10.811Z,36.33
2023-02-18T18:11:38.755Z,34.70
2023-02-18T18:14:06.648Z,37.08
2023-02-18T18:16:33.744Z,39.58
2023-02-18T18:19:00.882Z,35.42
2023-02-18T18:21:34.413Z,35.28
2023-02-18T18:24:01.800Z,36.72
2023-02-18T18:26:29.853Z,34.47
2023-02-18T18:28:57.078Z,38.40
2023-02-18T18:31:24.406Z,36.08
2023-02-18T18:33:53.205Z,38.42
2023-02-18T18:36:22.009Z,34.60
2023-02-18T18:38:49.251Z,43.95
2023-02-18T18:41:19.281Z,38.63
2023-02-18T18:43:46.670Z,38.60
2023-02-18T18:46:13.876Z,37.35
2023-02-18T18:48:41.218Z,34.67
2023-02-18T18:51:15.845Z,37.80
2023-02-18T18:53:43.214Z,37.58
2023-02-18T18:56:12.147Z,38.90
2023-02-18T18:58:39.592Z,37.15
2023-02-18T19:01:14.007Z,36.65
2023-02-18T19:03:42.283Z,37.10
2023-02-18T19:06:13.797Z,48.03
2023-02-18T19:08:40.865Z,41.42
2023-02-18T19:11:10.510Z,38.25
2023-02-18T19:13:37.854Z,48.17
2023-02-18T19:16:14.736Z,50.67
2023-02-18T19:18:41.897Z,51.50
2023-02-18T19:21:09.449Z,48.85
2023-02-18T19:23:37.296Z,45.00
2023-02-18T19:26:04.858Z,41.63
2023-02-18T19:28:31.955Z,41.92
2023-02-18T19:30:59.172Z,39.05
2023-02-18T19:33:26.341Z,38.63
2023-02-18T19:35:53.435Z,40.00
2023-02-18T19:38:20.788Z,37.85
2023-02-18T19:40:48.844Z,39.53
2023-02-18T19:43:15.989Z,43.38
2023-02-18T19:45:45.451Z,42.25
2023-02-18T19:48:14.365Z,40.38
2023-02-18T19:50:42.475Z,42.05
2023-02-18T19:53:10.884Z,43.80
2023-02-18T19:55:38.467Z,44.45
2023-02-18T19:58:06.029Z,44.05
2023-02-18T20:00:33.278Z,43.35
2023-02-18T20:03:00.475Z,43.97
2023-02-18T20:05:27.679Z,46.55
2023-02-18T20:07:54.813Z,44.65
2023-02-18T20:10:22.468Z,49.40
2023-02-18T20:12:54.051Z,44.92
2023-02-18T20:15:22.126Z,45.53
2023-02-18T20:17:49.793Z,45.47
2023-02-18T20:20:17.369Z,45.58
2023-02-18T20:22:44.473Z,44.75
2023-02-18T20:25:11.700Z,44.38
2023-02-18T20:27:47.975Z,45.55
2023-02-18T20:30:22.152Z,44.17
2023-02-18T20:32:49.307Z,45.85
2023-02-18T20:35:16.365Z,41.60
2023-02-18T20:37:43.449Z,42.67
2023-02-18T20:40:10.724Z,42.95
2023-02-18T20:42:38.832Z,44.63
2023-02-18T20:45:06.179Z,42.88
2023-02-18T20:47:33.242Z,44.47
2023-02-18T20:50:00.409Z,45.83
2023-02-18T20:52:27.546Z,45.08
2023-02-18T20:54:54.636Z,43.65
2023-02-18T20:57:21.730Z,46.50
2023-02-18T20:59:48.809Z,46.10
2023-02-18T21:02:16.727Z,41.72
2023-02-18T21:04:45.033Z,42.30
2023-02-18T21:07:12.156Z,44.33
2023-02-18T21:09:39.278Z,43.08
2023-02-18T21:12:06.441Z,43.67
2023-02-18T21:14:33.539Z,45.65
2023-02-18T21:17:00.654Z,44.75
2023-02-18T21:19:27.813Z,48.22
2023-02-18T21:21:54.885Z,45.83
2023-02-18T21:24:21.970Z,45.78
2023-02-18T21:26:49.070Z,42.72
2023-02-18T21:29:17.162Z,44.38
2023-02-18T21:31:44.813Z,44.25
2023-02-18T21:34:13.851Z,45.70
2023-02-18T21:36:42.050Z,44.95
2023-02-18T21:39:10.384Z,43.85
2023-02-18T21:41:40.803Z,42.05
2023-02-18T21:44:08.925Z,43.22
2023-02-18T21:46:36.778Z,42.08
2023-02-18T21:49:12.310Z,44.58
2023-02-18T21:52:19.101Z,47.17
2023-02-18T21:54:46.864Z,42.45
2023-02-18T21:57:19.788Z,44.45
2023-02-18T21:59:47.601Z,43.67
2023-02-18T22:02:16.415Z,42.15
2023-02-18T22:04:43.646Z,42.60
2023-02-18T22:07:10.897Z,39.80
2023-02-18T22:09:38.359Z,43.70
2023-02-18T22:12:06.144Z,41.60
2023-02-18T22:14:33.274Z,41.72
2023-02-18T22:17:00.900Z,40.25
2023-02-18T22:19:28.008Z,41.38
2023-02-18T22:21:55.462Z,40.65
2023-02-18T22:24:22.608Z,41.38
2023-02-18T22:26:50.403Z,41.33
2023-02-18T22:29:18.951Z,42.72
2023-02-18T22:31:47.238Z,40.38
2023-02-18T22:34:14.400Z,38.63
2023-02-18T22:36:41.900Z,41.17
2023-02-18T22:39:10.761Z,38.63
2023-02-18T22:41:38.311Z,43.08
2023-02-18T22:44:08.337Z,40.03
2023-02-18T22:46:36.856Z,40.58
2023-02-18T22:49:05.882Z,39.75
2023-02-18T22:51:37.637Z,41.65
2023-02-18T22:54:06.915Z,45.88
2023-02-18T22:56:34.218Z,40.17
2023-02-18T22:59:01.733Z,41.30
2023-02-18T23:01:31.896Z,42.00
2023-02-18T23:04:07.555Z,42.95
2023-02-18T23:06:35.538Z,42.92
2023-02-18T23:09:03.561Z,43.17
2023-02-18T23:11:30.693Z,46.20
2023-02-18T23:14:16.280Z,41.10
2023-02-18T23:17:02.942Z,44.20
2023-02-18T23:19:31.696Z,45.45
2023-02-18T23:21:59.097Z,41.47
2023-02-18T23:24:26.231Z,39.30
2023-02-18T23:26:53.527Z,39.05
2023-02-18T23:29:20.766Z,39.25
2023-02-18T23:31:48.328Z,43.88
2023-02-18T23:34:17.042Z,38.63
2023-02-18T23:36:45.899Z,42.65
2023-02-18T23:39:17.176Z,46.53
2023-02-18T23:41:44.580Z,42.58
2023-02-18T23:44:14.554Z,44.38
2023-02-18T23:46:44.645Z,43.65
2023-02-18T23:49:21.972Z,40.58
2023-02-18T23:51:51.190Z,39.30
2023-02-18T23:54:19.265Z,41.65
2023-02-18T23:56:46.700Z,43.35
2023-02-18T23:59:13.841Z,43.03
